Time;durP1;ratioP1;P1;durP2;ratioP2;P2;SDS_P1;SDS_P2;PMS_P1;PMS_P2;Temp;Humidity;BMP_temperature;BMP_pressure;BME280_temperature;BME280_humidity;BME280_pressure;Samples;Min_cycle;Max_cycle;Signal;HPM_P1;HPM_P2
2023/08/31 00:01:48;;;;;;;2.45;1.55;;;15.60;99.90;;;;;;5098316;27;20440;-83
2023/08/31 00:04:14;;;;;;;3.25;1.80;;;15.60;99.90;;;;;;5098769;27;20459;-82
2023/08/31 00:06:41;;;;;;;2.53;1.80;;;15.60;99.90;;;;;;5111391;27;20079;-82
2023/08/31 00:09:09;;;;;;;2.63;1.83;;;15.60;99.90;;;;;;5097490;27;20479;-83
2023/08/31 00:11:38;;;;;;;3.38;1.75;;;15.60;99.90;;;;;;5130879;27;20081;-83
2023/08/31 00:14:04;;;;;;;4.78;2.10;;;15.60;99.90;;;;;;5099120;27;20051;-83
2023/08/31 00:16:30;;;;;;;4.53;1.70;;;15.70;99.90;;;;;;5097235;27;20039;-83
2023/08/31 00:18:57;;;;;;;2.65;1.70;;;15.80;99.90;;;;;;5113670;27;20035;-84
2023/08/31 00:21:23;;;;;;;2.88;1.90;;;15.60;99.90;;;;;;5110616;27;20043;-82
2023/08/31 00:23:49;;;;;;;3.90;1.92;;;15.70;99.90;;;;;;5112572;27;20058;-81
2023/08/31 00:26:16;;;;;;;2.78;1.90;;;15.70;99.90;;;;;;5129637;27;20039;-80
2023/08/31 00:28:44;;;;;;;2.30;2.10;;;15.60;99.90;;;;;;5112851;27;20364;-81
2023/08/31 00:31:10;;;;;;;4.43;2.28;;;15.80;99.90;;;;;;5092933;28;20027;-82
2023/08/31 00:33:37;;;;;;;3.38;2.33;;;15.70;99.90;;;;;;5125651;27;20039;-80
2023/08/31 00:36:04;;;;;;;4.80;2.97;;;15.70;99.90;;;;;;5089017;27;20063;-81
2023/08/31 00:38:33;;;;;;;2.95;2.15;;;15.80;99.90;;;;;;5113710;27;20039;-80
2023/08/31 00:40:59;;;;;;;5.82;2.60;;;15.70;99.90;;;;;;5107805;27;20039;-81
2023/08/31 00:43:24;;;;;;;3.97;2.75;;;15.90;99.90;;;;;;5112728;27;20035;-81
2023/08/31 00:45:56;;;;;;;4.40;2.67;;;15.70;99.90;;;;;;5094751;27;20039;-80
2023/08/31 00:48:22;;;;;;;4.70;2.80;;;15.70;99.90;;;;;;5108855;27;20043;-80
2023/08/31 00:50:48;;;;;;;5.50;3.00;;;15.80;99.90;;;;;;5109312;27;20494;-81
2023/08/31 00:53:15;;;;;;;4.90;3.00;;;15.90;99.90;;;;;;5091473;27;20419;-81
2023/08/31 00:55:41;;;;;;;6.47;3.50;;;15.80;99.90;;;;;;5095085;28;20062;-81
2023/08/31 00:58:07;;;;;;;5.43;3.05;;;15.90;99.90;;;;;;5106247;28;20042;-82
2023/08/31 01:00:40;;;;;;;5.40;2.78;;;15.80;99.90;;;;;;5093261;27;20408;-81
2023/08/31 01:03:13;;;;;;;5.70;3.08;;;15.80;99.90;;;;;;5098621;27;20150;-81
2023/08/31 01:05:47;;;;;;;4.70;2.90;;;15.80;99.90;;;;;;5111740;27;20051;-81
2023/08/31 01:08:43;;;;;;;4.75;2.42;;;15.80;99.90;;;;;;5094027;28;20040;-80
2023/08/31 01:11:41;;;;;;;4.00;2.78;;;16.00;99.90;;;;;;5094614;27;20048;-81
2023/08/31 01:14:15;;;;;;;3.50;2.83;;;15.80;99.90;;;;;;5086587;28;20783;-82
2023/08/31 01:16:43;;;;;;;3.40;2.33;;;15.90;99.90;;;;;;5102099;28;20036;-80
2023/08/31 01:19:38;;;;;;;3.50;2.70;;;15.70;99.90;;;;;;5087080;28;20294;-81
2023/08/31 01:22:11;;;;;;;4.82;2.45;;;15.80;99.90;;;;;;5084941;28;20042;-81
2023/08/31 01:24:37;;;;;;;6.38;2.55;;;15.70;99.90;;;;;;5108055;28;20080;-82
2023/08/31 01:27:04;;;;;;;2.70;2.13;;;15.60;99.90;;;;;;5056799;28;20504;-82
2023/08/31 01:29:30;;;;;;;3.63;2.30;;;15.70;99.90;;;;;;5083394;28;20044;-81
2023/08/31 01:31:58;;;;;;;4.80;2.65;;;15.70;99.90;;;;;;5092363;28;20036;-82
2023/08/31 01:34:24;;;;;;;5.68;2.30;;;15.60;99.90;;;;;;5090015;28;20028;-82
2023/08/31 01:36:58;;;;;;;3.33;2.00;;;15.60;99.90;;;;;;5089361;28;20042;-81
2023/08/31 01:39:35;;;;;;;2.95;2.00;;;15.60;99.90;;;;;;5089146;28;20047;-80
2023/08/31 01:42:04;;;;;;;2.78;1.80;;;15.60;99.90;;;;;;5101940;28;20067;-80
2023/08/31 01:44:34;;;;;;;3.63;2.03;;;15.60;99.90;;;;;;5082256;28;20067;-81
2023/08/31 01:47:05;;;;;;;3.03;1.75;;;15.60;99.90;;;;;;5105012;27;21669;-82
2023/08/31 01:49:43;;;;;;;4.00;2.03;;;15.50;99.90;;;;;;5084723;27;20067;-82
2023/08/31 01:52:12;;;;;;;3.45;2.05;;;15.60;99.90;;;;;;5076904;27;20054;-82
2023/08/31 01:54:37;;;;;;;4.35;1.90;;;15.60;99.90;;;;;;5107872;27;20051;-84
2023/08/31 01:57:04;;;;;;;4.93;1.80;;;15.60;99.90;;;;;;5093806;27;20117;-83
2023/08/31 01:59:33;;;;;;;4.57;1.80;;;15.50;99.90;;;;;;5108182;28;20039;-84
2023/08/31 02:01:59;;;;;;;2.35;1.77;;;15.10;99.90;;;;;;5093048;27;20045;-83
2023/08/31 02:04:24;;;;;;;6.75;1.95;;;15.60;99.90;;;;;;5111927;27;20118;-85
2023/08/31 02:06:50;;;;;;;5.53;1.80;;;15.60;99.90;;;;;;5095589;27;20035;-81
2023/08/31 02:09:18;;;;;;;5.15;1.75;;;15.50;99.90;;;;;;5093723;27;20095;-81
2023/08/31 02:11:44;;;;;;;3.58;1.60;;;14.80;99.90;;;;;;5112081;27;20035;-81
2023/08/31 02:14:10;;;;;;;4.72;1.80;;;15.50;99.90;;;;;;5073044;28;20391;-83
2023/08/31 02:16:35;;;;;;;2.70;1.60;;;15.50;99.90;;;;;;5090583;27;20035;-82
2023/08/31 02:19:01;;;;;;;5.68;1.85;;;15.50;99.90;;;;;;5110105;28;20061;-81
2023/08/31 02:21:27;;;;;;;5.03;2.35;;;15.40;99.90;;;;;;5091184;28;20104;-86
2023/08/31 02:23:58;;;;;;;2.55;1.80;;;15.40;99.90;;;;;;5104026;28;20081;-87
2023/08/31 02:26:24;;;;;;;3.33;1.75;;;15.50;99.90;;;;;;5103921;28;20461;-83
2023/08/31 02:28:52;;;;;;;4.38;2.08;;;15.40;99.90;;;;;;5107101;28;20039;-85
2023/08/31 02:31:18;;;;;;;2.88;1.80;;;15.40;99.90;;;;;;5110420;27;20123;-82
2023/08/31 02:33:46;;;;;;;2.80;1.60;;;15.50;99.90;;;;;;5128803;27;20039;-83
2023/08/31 02:36:13;;;;;;;3.38;1.73;;;15.60;99.90;;;;;;5111352;28;20031;-84
2023/08/31 02:38:39;;;;;;;2.10;1.67;;;15.70;99.90;;;;;;5111838;28;20594;-83
2023/08/31 02:41:05;;;;;;;2.78;1.63;;;15.50;99.90;;;;;;5077168;28;20042;-84
2023/08/31 02:43:30;;;;;;;2.63;1.70;;;15.40;99.90;;;;;;5110611;28;20122;-84
2023/08/31 02:46:03;;;;;;;2.42;1.67;;;15.40;99.90;;;;;;5096072;28;20027;-85
2023/08/31 02:49:00;;;;;;;;;;;;;;;;;;;;;
2023/08/31 02:52:00;;;;;;;2.53;1.70;;;15.20;99.90;;;;;;5122405;28;20039;-86
2023/08/31 02:54:44;;;;;;;2.55;1.60;;;14.90;99.90;;;;;;5106192;27;20436;-86
2023/08/31 02:57:26;;;;;;;2.10;1.50;;;15.50;99.90;;;;;;5104601;28;20427;-82
2023/08/31 02:59:52;;;;;;;3.50;1.60;;;15.50;99.90;;;;;;5103900;27;20157;-82
2023/08/31 03:02:40;;;;;;;3.70;1.70;;;15.40;99.90;;;;;;5082511;27;20046;-86
2023/08/31 03:08:14;;;;;;;;;;;16.10;99.90;;;;;;5111713;28;20039;-86
2023/08/31 03:10:43;;;;;;;4.72;1.40;;;15.40;99.90;;;;;;5115110;27;19925;-85
2023/08/31 03:21:19;;;;;;;4.20;1.80;;;15.60;99.90;;;;;;5142181;27;20576;-85
2023/08/31 03:28:08;;;;;;;5.38;1.63;;;15.40;99.90;;;;;;5144430;27;20179;-85
2023/08/31 03:34:38;;;;;;;6.82;2.00;;;15.30;99.90;;;;;;5086640;28;20055;-85
2023/08/31 03:44:37;;;;;;;5.25;1.90;;;15.40;99.90;;;;;;5004283;28;20059;-83
2023/08/31 03:47:08;;;;;;;4.43;1.85;;;15.20;99.90;;;;;;5097531;27;20436;-84
2023/08/31 03:50:32;;;;;;;;;;;;;;;;;;;;;
2023/08/31 03:53:39;;;;;;;;;;;;;;;;;;;;;
2023/08/31 03:56:44;;;;;;;5.93;2.40;;;15.40;99.90;;;;;;5047999;28;20054;-84
2023/08/31 03:59:28;;;;;;;4.95;2.33;;;15.40;99.90;;;;;;5048153;28;20144;-81
2023/08/31 04:01:56;;;;;;;3.05;2.17;;;15.30;99.90;;;;;;5023333;28;20822;-82
2023/08/31 04:04:21;;;;;;;5.68;2.30;;;15.50;99.90;;;;;;5036879;28;20040;-82
2023/08/31 04:06:47;;;;;;;4.93;2.40;;;15.50;99.90;;;;;;5034729;28;20549;-81
2023/08/31 04:09:13;;;;;;;5.05;2.10;;;15.40;99.90;;;;;;5108311;28;20048;-82
2023/08/31 04:11:39;;;;;;;6.03;2.45;;;15.40;99.90;;;;;;5076075;28;20040;-84
2023/08/31 04:14:05;;;;;;;4.38;2.30;;;15.50;99.90;;;;;;5078721;28;20119;-85
2023/08/31 04:16:32;;;;;;;6.68;2.55;;;15.50;99.90;;;;;;5053115;28;20071;-84
2023/08/31 04:18:57;;;;;;;7.93;3.38;;;15.40;99.90;;;;;;5061456;28;20044;-84
2023/08/31 04:21:23;;;;;;;4.63;2.28;;;15.40;99.90;;;;;;5091349;28;20594;-86
2023/08/31 04:23:49;;;;;;;4.65;1.90;;;15.50;99.90;;;;;;5078398;28;20114;-83
2023/08/31 04:26:16;;;;;;;3.75;2.63;;;15.40;99.90;;;;;;5055366;28;20425;-83
2023/08/31 04:28:42;;;;;;;4.32;2.05;;;15.30;99.90;;;;;;5052294;28;20047;-83
2023/08/31 04:31:08;;;;;;;4.05;2.13;;;15.30;99.90;;;;;;5063520;28;20035;-82
2023/08/31 04:33:38;;;;;;;6.25;2.38;;;15.50;99.90;;;;;;5090216;28;20036;-82
2023/08/31 04:36:04;;;;;;;3.53;2.58;;;15.50;99.90;;;;;;5077162;28;20165;-82
2023/08/31 04:38:39;;;;;;;4.68;2.30;;;15.50;99.90;;;;;;5054185;28;20040;-84
2023/08/31 04:41:05;;;;;;;3.45;2.55;;;15.60;99.90;;;;;;5099319;28;20043;-83
2023/08/31 04:43:31;;;;;;;3.53;2.47;;;15.50;99.90;;;;;;5076380;28;20380;-83
2023/08/31 04:45:59;;;;;;;6.53;3.10;;;15.60;99.90;;;;;;5072709;28;20365;-83
2023/08/31 04:48:25;;;;;;;4.32;2.58;;;15.60;99.90;;;;;;5089251;28;20091;-82
2023/08/31 04:50:57;;;;;;;4.13;2.78;;;15.60;99.90;;;;;;5058166;27;20119;-82
2023/08/31 04:53:23;;;;;;;5.40;2.85;;;15.60;99.90;;;;;;5079197;28;20028;-82
2023/08/31 04:55:49;;;;;;;5.38;2.70;;;15.60;99.90;;;;;;5074524;27;20040;-80
2023/08/31 04:58:15;;;;;;;6.63;3.58;;;15.40;99.90;;;;;;5091932;27;20053;-79
2023/08/31 05:00:44;;;;;;;5.38;3.13;;;15.60;99.90;;;;;;5124599;27;20035;-82
2023/08/31 05:03:10;;;;;;;3.40;2.78;;;15.40;99.90;;;;;;5096992;27;20043;-82
2023/08/31 05:05:36;;;;;;;6.07;3.15;;;15.50;99.90;;;;;;5127853;27;20038;-83
2023/08/31 05:08:03;;;;;;;6.88;3.53;;;15.50;99.90;;;;;;5111209;27;20034;-84
2023/08/31 05:11:15;;;;;;;4.20;3.35;;;15.30;99.90;;;;;;5096185;27;20163;-85
2023/08/31 05:13:44;;;;;;;4.97;3.13;;;15.50;99.90;;;;;;5101133;27;20045;-84
2023/08/31 05:16:10;;;;;;;10.40;3.50;;;15.30;99.90;;;;;;5112056;27;20060;-86
2023/08/31 05:18:37;;;;;;;3.08;2.78;;;15.40;99.90;;;;;;5111391;27;20039;-85
2023/08/31 05:21:07;;;;;;;4.95;3.13;;;15.20;99.90;;;;;;5112739;27;20130;-85
2023/08/31 05:23:32;;;;;;;6.50;3.50;;;15.80;99.90;;;;;;5129243;27;21912;-84
2023/08/31 05:26:01;;;;;;;5.03;3.55;;;15.30;99.90;;;;;;5095978;27;20042;-83
2023/08/31 05:28:28;;;;;;;4.82;3.22;;;15.00;99.90;;;;;;5106651;27;20030;-84
2023/08/31 05:30:57;;;;;;;4.47;3.67;;;15.20;99.90;;;;;;5090203;27;20129;-84
2023/08/31 05:33:25;;;;;;;4.57;3.60;;;15.30;99.90;;;;;;5113964;27;20198;-83
2023/08/31 05:35:51;;;;;;;6.18;3.88;;;15.50;99.90;;;;;;5113888;27;20486;-82
2023/08/31 05:38:17;;;;;;;6.20;3.70;;;15.30;99.90;;;;;;5105144;27;20039;-84
2023/08/31 05:41:06;;;;;;;7.28;3.90;;;15.50;99.90;;;;;;5096618;27;20424;-82
2023/08/31 05:50:07;;;;;;;6.30;3.65;;;15.40;99.90;;;;;;5102982;27;20526;-81
2023/08/31 05:52:43;;;;;;;;;;;15.60;99.90;;;;;;5089049;27;20567;-81
2023/08/31 05:56:06;;;;;;;4.95;3.17;;;15.70;99.90;;;;;;5108916;27;20278;-81
2023/08/31 05:58:41;;;;;;;4.35;3.13;;;15.70;99.90;;;;;;5068310;28;20043;-81
2023/08/31 06:01:16;;;;;;;6.80;3.80;;;15.80;99.90;;;;;;5089296;27;20576;-81
2023/08/31 06:04:37;;;;;;;4.35;3.50;;;15.90;99.90;;;;;;5066746;27;20031;-80
2023/08/31 06:08:08;;;;;;;8.75;3.75;;;15.40;99.90;;;;;;5043098;28;20083;-81
2023/08/31 06:11:58;;;;;;;;;;;;;;;;;;;;;
2023/08/31 06:14:19;;;;;;;4.10;3.70;;;16.10;99.90;;;;;;5010275;28;20126;-84
2023/08/31 06:16:53;;;;;;;4.55;3.40;;;16.30;99.90;;;;;;5010856;28;20850;-81
2023/08/31 06:19:19;;;;;;;5.40;4.00;;;15.60;99.90;;;;;;5007432;28;20456;-76
2023/08/31 06:21:45;;;;;;;7.05;3.92;;;16.40;99.90;;;;;;5006468;28;20124;-77
2023/08/31 06:24:12;;;;;;;6.53;3.05;;;16.30;99.90;;;;;;5012063;28;20374;-77
2023/08/31 06:26:39;;;;;;;5.55;3.13;;;16.30;99.90;;;;;;5030816;28;20111;-78
2023/08/31 06:29:05;;;;;;;8.50;2.97;;;16.50;99.90;;;;;;5013147;28;20043;-77
2023/08/31 06:31:32;;;;;;;5.75;2.83;;;16.70;99.90;;;;;;5043651;28;20051;-77
2023/08/31 06:33:58;;;;;;;7.15;3.10;;;16.70;99.90;;;;;;5027863;28;20102;-78
2023/08/31 06:36:24;;;;;;;4.95;2.85;;;16.90;99.90;;;;;;5063194;28;20689;-77
2023/08/31 06:38:49;;;;;;;6.00;2.80;;;16.90;99.90;;;;;;5044524;28;20036;-77
2023/08/31 06:41:15;;;;;;;7.10;2.92;;;16.90;99.90;;;;;;5086083;27;20062;-79
2023/08/31 06:43:41;;;;;;;5.75;3.45;;;17.00;99.90;;;;;;5075832;27;20057;-77
2023/08/31 06:46:07;;;;;;;6.10;2.33;;;17.00;99.90;;;;;;5090785;27;20378;-77
2023/08/31 06:48:33;;;;;;;5.20;2.35;;;17.10;99.90;;;;;;5110940;27;20121;-78
2023/08/31 06:50:59;;;;;;;5.97;2.00;;;17.30;99.90;;;;;;5126493;27;20397;-79
2023/08/31 06:53:24;;;;;;;4.75;2.92;;;17.20;99.90;;;;;;5077985;27;20035;-78
2023/08/31 06:55:50;;;;;;;3.00;2.10;;;17.60;99.90;;;;;;5114263;27;20042;-80
2023/08/31 06:58:16;;;;;;;6.07;2.42;;;17.60;99.90;;;;;;5135588;27;20126;-78
2023/08/31 07:00:42;;;;;;;4.75;2.00;;;17.60;99.90;;;;;;5097970;27;20099;-77
2023/08/31 07:03:08;;;;;;;2.97;2.03;;;17.70;99.90;;;;;;5106084;27;20039;-78
2023/08/31 07:05:37;;;;;;;3.30;1.88;;;17.70;99.90;;;;;;5065315;27;20475;-79
2023/08/31 07:08:03;;;;;;;4.20;1.92;;;17.80;99.90;;;;;;5098539;27;20051;-80
2023/08/31 07:10:29;;;;;;;4.40;1.83;;;17.90;99.90;;;;;;5101590;27;20477;-80
2023/08/31 07:12:55;;;;;;;4.63;1.63;;;17.90;99.90;;;;;;5100830;27;20043;-80
2023/08/31 07:15:20;;;;;;;4.88;1.70;;;18.20;99.90;;;;;;5114191;27;20084;-78
2023/08/31 07:17:46;;;;;;;3.78;1.80;;;18.00;99.90;;;;;;5091643;27;20149;-78
2023/08/31 07:20:12;;;;;;;4.10;1.80;;;18.30;99.90;;;;;;5117187;27;20042;-80
2023/08/31 07:22:38;;;;;;;3.40;1.52;;;18.50;99.90;;;;;;5118718;27;20046;-78
2023/08/31 07:25:05;;;;;;;3.30;1.20;;;18.60;99.90;;;;;;5116625;27;20065;-81
2023/08/31 07:27:31;;;;;;;3.58;1.40;;;18.70;99.90;;;;;;5115551;27;20043;-82
2023/08/31 07:29:57;;;;;;;6.25;1.30;;;18.50;99.90;;;;;;5129512;27;20030;-81
2023/08/31 07:32:23;;;;;;;2.72;1.55;;;18.40;99.90;;;;;;5134250;27;20513;-81
2023/08/31 07:34:49;;;;;;;2.92;1.23;;;18.70;99.90;;;;;;5116864;27;20038;-82
2023/08/31 07:37:14;;;;;;;1.90;1.10;;;18.50;99.90;;;;;;5118166;27;20041;-82
2023/08/31 07:39:40;;;;;;;7.03;2.58;;;18.60;99.90;;;;;;5082029;27;20043;-82
2023/08/31 07:42:06;;;;;;;2.38;1.20;;;18.60;99.90;;;;;;5135676;27;20039;-82
2023/08/31 07:44:32;;;;;;;6.47;1.30;;;19.00;99.90;;;;;;5099004;27;20085;-83
2023/08/31 07:46:58;;;;;;;4.20;1.10;;;19.10;99.90;;;;;;5094655;27;20543;-83
2023/08/31 07:49:23;;;;;;;6.50;1.30;;;19.10;99.90;;;;;;5097238;27;20047;-82
2023/08/31 07:51:49;;;;;;;4.47;1.15;;;19.20;99.90;;;;;;5111995;27;20056;-81
2023/08/31 07:54:22;;;;;;;3.17;1.00;;;19.10;99.90;;;;;;5118893;27;20365;-81
2023/08/31 07:56:47;;;;;;;1.88;1.00;;;19.20;99.90;;;;;;5113581;27;20045;-81
2023/08/31 07:59:13;;;;;;;3.72;1.02;;;19.30;99.90;;;;;;5117548;27;20381;-81
2023/08/31 08:01:40;;;;;;;2.63;0.98;;;19.50;99.90;;;;;;5134650;27;20039;-82
2023/08/31 08:04:06;;;;;;;1.30;0.80;;;19.50;99.90;;;;;;5080905;27;20047;-82
2023/08/31 08:06:32;;;;;;;3.80;1.00;;;19.70;99.90;;;;;;5116117;27;20042;-81
2023/08/31 08:08:58;;;;;;;4.05;1.05;;;19.60;99.90;;;;;;5115725;27;20043;-81
2023/08/31 08:11:24;;;;;;;3.70;0.88;;;19.50;99.90;;;;;;5099046;27;20109;-80
2023/08/31 08:13:49;;;;;;;3.63;1.10;;;19.80;99.90;;;;;;5116916;27;20044;-81
2023/08/31 08:16:15;;;;;;;2.90;0.90;;;19.70;99.90;;;;;;5097218;27;20121;-80
2023/08/31 08:18:41;;;;;;;3.42;0.70;;;19.80;99.90;;;;;;5114532;27;20031;-80
2023/08/31 08:21:07;;;;;;;3.08;0.90;;;19.90;99.90;;;;;;5105458;27;20083;-82
2023/08/31 08:23:33;;;;;;;4.28;0.82;;;20.00;99.90;;;;;;5113585;27;20046;-81
2023/08/31 08:26:01;;;;;;;3.42;1.08;;;20.00;99.90;;;;;;5101571;27;20031;-81
2023/08/31 08:28:28;;;;;;;3.47;0.80;;;20.10;99.90;;;;;;5093387;27;20035;-81
2023/08/31 08:30:54;;;;;;;2.97;0.70;;;20.10;99.90;;;;;;5117882;27;20027;-80
2023/08/31 08:33:19;;;;;;;1.63;0.90;;;20.20;99.90;;;;;;5132956;27;20035;-81
2023/08/31 08:35:45;;;;;;;5.10;0.93;;;20.10;99.90;;;;;;5100586;27;20475;-81
2023/08/31 08:38:12;;;;;;;4.60;0.90;;;20.30;99.90;;;;;;5079469;27;20077;-80
2023/08/31 08:40:38;;;;;;;11.55;2.05;;;20.30;99.90;;;;;;5117310;27;20034;-81
2023/08/31 08:43:10;;;;;;;3.88;0.77;;;20.50;99.90;;;;;;5112894;27;20497;-81
2023/08/31 08:45:38;;;;;;;1.30;0.90;;;20.60;99.90;;;;;;5112631;27;20046;-80
2023/08/31 08:48:07;;;;;;;1.52;0.73;;;20.60;99.90;;;;;;5130508;27;20039;-81
2023/08/31 08:50:34;;;;;;;2.53;1.10;;;20.70;99.90;;;;;;5096636;27;20566;-82
2023/08/31 08:53:02;;;;;;;1.80;0.90;;;21.00;99.90;;;;;;5107082;27;20418;-82
2023/08/31 08:55:27;;;;;;;2.95;0.88;;;21.00;99.90;;;;;;5088396;27;20372;-82
2023/08/31 08:57:53;;;;;;;2.05;0.70;;;21.00;99.90;;;;;;5112361;27;20053;-81
2023/08/31 09:00:19;;;;;;;3.75;0.90;;;21.10;99.90;;;;;;5116550;27;20063;-81
2023/08/31 09:02:45;;;;;;;1.48;0.70;;;21.00;99.90;;;;;;5131867;27;20483;-83
2023/08/31 09:05:11;;;;;;;3.80;0.88;;;21.10;99.90;;;;;;5078412;27;20070;-82
2023/08/31 09:07:37;;;;;;;1.95;0.70;;;21.20;99.90;;;;;;5098168;27;20153;-81
2023/08/31 09:10:04;;;;;;;1.67;0.70;;;21.20;99.90;;;;;;5110310;27;20391;-82
2023/08/31 09:12:30;;;;;;;2.03;0.70;;;21.30;99.90;;;;;;5096058;27;20039;-81
2023/08/31 09:14:59;;;;;;;1.20;0.70;;;21.20;99.90;;;;;;5093407;27;20031;-82
2023/08/31 09:17:28;;;;;;;4.50;0.90;;;21.30;99.90;;;;;;5128149;27;20046;-82
2023/08/31 09:20:01;;;;;;;1.42;0.60;;;21.70;99.90;;;;;;5094882;27;20068;-82
2023/08/31 09:22:27;;;;;;;3.70;0.90;;;21.80;99.90;;;;;;5096400;27;20323;-82
2023/08/31 09:24:52;;;;;;;6.35;1.30;;;21.60;99.90;;;;;;5116816;27;20175;-80
2023/08/31 09:27:20;;;;;;;1.90;0.98;;;20.90;99.90;;;;;;5099641;27;20053;-79
2023/08/31 09:29:46;;;;;;;6.68;1.17;;;20.50;99.90;;;;;;5111779;27;20682;-78
2023/08/31 09:32:19;;;;;;;1.42;0.80;;;20.30;99.90;;;;;;5111798;27;20130;-79
2023/08/31 09:34:45;;;;;;;1.77;0.70;;;20.10;99.90;;;;;;5097284;27;20045;-79
2023/08/31 09:37:11;;;;;;;2.08;1.00;;;20.00;99.90;;;;;;5128141;27;20490;-77
2023/08/31 09:39:38;;;;;;;2.88;0.85;;;19.90;99.90;;;;;;5094660;27;20042;-78
2023/08/31 09:42:04;;;;;;;1.83;0.80;;;20.20;99.90;;;;;;5131406;27;20594;-80
2023/08/31 09:44:30;;;;;;;2.45;0.85;;;20.30;99.90;;;;;;5113247;27;20046;-79
2023/08/31 09:46:57;;;;;;;1.98;0.85;;;20.70;99.90;;;;;;5113164;27;20035;-79
2023/08/31 09:49:25;;;;;;;1.92;0.85;;;21.00;99.90;;;;;;5111105;27;20045;-81
2023/08/31 09:51:51;;;;;;;2.05;0.95;;;21.30;99.90;;;;;;5113602;27;20038;-80
2023/08/31 09:54:23;;;;;;;2.65;0.85;;;21.50;99.90;;;;;;5131455;27;20039;-80
2023/08/31 09:56:50;;;;;;;2.90;0.90;;;21.70;99.90;;;;;;5098628;27;20061;-81
2023/08/31 09:59:17;;;;;;;1.00;0.90;;;22.20;99.90;;;;;;5129881;27;20051;-80
2023/08/31 10:01:46;;;;;;;2.72;1.00;;;22.30;99.90;;;;;;5130595;27;20050;-82
2023/08/31 10:04:12;;;;;;;2.85;1.20;;;22.20;99.90;;;;;;5112857;27;20030;-80
2023/08/31 10:06:42;;;;;;;1.70;0.77;;;21.80;99.90;;;;;;5115382;27;20054;-80
2023/08/31 10:09:12;;;;;;;2.35;0.90;;;21.50;99.90;;;;;;5131051;27;20081;-80
2023/08/31 10:11:42;;;;;;;0.93;0.82;;;21.50;99.90;;;;;;5111324;27;20128;-81
2023/08/31 10:14:10;;;;;;;2.67;1.05;;;21.60;99.90;;;;;;5098753;27;20049;-81
2023/08/31 10:16:38;;;;;;;1.73;0.93;;;21.90;99.90;;;;;;5131901;27;20035;-82
2023/08/31 10:19:04;;;;;;;2.53;1.10;;;22.40;99.90;;;;;;5098616;27;20039;-81
2023/08/31 10:21:31;;;;;;;2.83;1.15;;;22.60;99.90;;;;;;5092497;27;20558;-83
2023/08/31 10:23:57;;;;;;;3.35;1.27;;;23.00;99.90;;;;;;5087504;27;20047;-82
2023/08/31 10:26:30;;;;;;;3.38;1.20;;;23.20;99.90;;;;;;5088466;27;20054;-81
2023/08/31 10:28:58;;;;;;;2.37;1.03;;;22.80;99.90;;;;;;5115147;27;20049;-82
2023/08/31 10:31:27;;;;;;;3.20;1.10;;;22.30;99.90;;;;;;5105924;27;20038;-81
2023/08/31 10:34:09;;;;;;;2.90;1.00;;;21.80;99.90;;;;;;5096643;27;20038;-82
2023/08/31 10:36:44;;;;;;;2.75;1.00;;;21.50;99.90;;;;;;5108745;27;20030;-83
2023/08/31 10:39:19;;;;;;;3.72;1.02;;;21.80;99.90;;;;;;5127460;27;20050;-82
2023/08/31 10:42:03;;;;;;;;;;;22.00;99.90;;;;;;5113017;27;20046;-82
2023/08/31 10:44:31;;;;;;;1.48;0.90;;;22.10;99.90;;;;;;5131208;27;19967;-82
2023/08/31 10:47:03;;;;;;;2.85;1.08;;;22.60;99.90;;;;;;5113894;27;20050;-82
2023/08/31 10:49:28;;;;;;;5.00;1.00;;;23.00;99.90;;;;;;5111742;27;20039;-82
2023/08/31 10:52:18;;;;;;;1.27;0.90;;;23.40;99.90;;;;;;5107312;27;20049;-81
2023/08/31 10:54:46;;;;;;;2.15;1.10;;;23.20;99.90;;;;;;5126463;27;20129;-83
2023/08/31 10:57:14;;;;;;;2.50;1.15;;;23.60;99.90;;;;;;5094050;28;20055;-83
2023/08/31 10:59:50;;;;;;;2.13;1.23;;;23.70;99.90;;;;;;5074343;28;20055;-82
2023/08/31 11:02:38;;;;;;;1.98;1.10;;;23.80;99.90;;;;;;5088910;28;20048;-79
2023/08/31 11:05:19;;;;;;;2.35;1.02;;;23.90;99.90;;;;;;5075430;28;20466;-79
2023/08/31 11:07:49;;;;;;;1.60;0.90;;;24.40;99.90;;;;;;5095468;28;20074;-78
2023/08/31 11:10:23;;;;;;;1.70;1.00;;;23.90;99.90;;;;;;5073447;28;20085;-80
2023/08/31 11:12:54;;;;;;;3.03;1.25;;;23.50;99.90;;;;;;5067225;28;20391;-82
2023/08/31 11:15:22;;;;;;;1.75;1.00;;;23.20;99.90;;;;;;5040637;28;20039;-84
2023/08/31 11:17:52;;;;;;;1.45;0.90;;;23.00;99.90;;;;;;5055742;28;20614;-83
2023/08/31 11:20:20;;;;;;;2.58;1.00;;;22.90;99.90;;;;;;5065056;28;20047;-82
2023/08/31 11:22:53;;;;;;;3.75;1.40;;;23.10;99.90;;;;;;5073555;28;20055;-81
2023/08/31 11:25:23;;;;;;;3.60;1.10;;;23.40;99.90;;;;;;5058602;28;20136;-82
2023/08/31 11:28:05;;;;;;;2.28;1.05;;;23.80;99.90;;;;;;5075978;28;20403;-82
2023/08/31 11:30:31;;;;;;;1.60;1.00;;;23.80;99.90;;;;;;5081607;28;20068;-82
2023/08/31 11:33:02;;;;;;;2.20;1.05;;;23.90;99.90;;;;;;5070430;28;20118;-82
2023/08/31 11:35:36;;;;;;;1.67;0.80;;;24.20;99.90;;;;;;5083149;28;20044;-82
2023/08/31 11:38:03;;;;;;;4.53;1.08;;;24.40;99.90;;;;;;5047026;28;20058;-82
2023/08/31 11:40:29;;;;;;;1.75;0.98;;;24.70;99.90;;;;;;5083183;28;20052;-80
2023/08/31 11:42:57;;;;;;;0.88;0.70;;;24.60;99.90;;;;;;5083047;28;20050;-82
2023/08/31 11:45:25;;;;;;;2.25;0.80;;;24.90;99.90;;;;;;5044000;28;20039;-80
2023/08/31 11:47:52;;;;;;;1.65;1.05;;;24.10;99.90;;;;;;5080294;28;20036;-81
2023/08/31 11:50:18;;;;;;;2.53;1.00;;;24.10;99.90;;;;;;5078011;28;20044;-81
2023/08/31 11:52:45;;;;;;;4.00;1.00;;;23.80;99.90;;;;;;5059414;28;20039;-80
2023/08/31 11:55:13;;;;;;;2.85;1.02;;;23.70;99.90;;;;;;5073025;27;20035;-82
2023/08/31 11:57:38;;;;;;;1.73;0.80;;;23.30;99.90;;;;;;5082916;27;20389;-81
2023/08/31 12:00:05;;;;;;;1.38;0.77;;;22.80;99.90;;;;;;5094728;27;20035;-81
2023/08/31 12:02:37;;;;;;;3.35;1.25;;;22.00;99.90;;;;;;5104422;27;20035;-79
2023/08/31 12:05:05;;;;;;;6.40;1.45;;;21.20;99.90;;;;;;5091218;27;20034;-78
2023/08/31 12:07:31;;;;;;;3.97;1.20;;;20.70;99.90;;;;;;5094176;27;20113;-78
2023/08/31 12:10:06;;;;;;;3.83;1.23;;;20.20;99.90;;;;;;5105684;27;20176;-78
2023/08/31 12:12:34;;;;;;;2.45;0.75;;;20.00;99.90;;;;;;5104970;27;20042;-78
2023/08/31 12:15:03;;;;;;;1.80;0.80;;;19.90;99.90;;;;;;5087408;27;20091;-78
2023/08/31 12:17:33;;;;;;;1.88;0.75;;;19.80;99.90;;;;;;5124336;27;20034;-77
2023/08/31 12:20:05;;;;;;;0.80;0.80;;;20.00;99.90;;;;;;5091314;27;20386;-79
2023/08/31 12:22:31;;;;;;;1.63;0.80;;;20.10;99.90;;;;;;5102744;27;20550;-80
2023/08/31 12:24:57;;;;;;;3.08;1.30;;;20.40;99.90;;;;;;5118317;27;20035;-77
2023/08/31 12:27:23;;;;;;;1.95;1.10;;;20.60;99.90;;;;;;5098741;27;20043;-78
2023/08/31 12:29:50;;;;;;;4.80;1.05;;;20.80;99.90;;;;;;5130076;27;20053;-75
2023/08/31 12:32:17;;;;;;;3.15;1.10;;;20.70;99.90;;;;;;5133914;27;20035;-78
2023/08/31 12:34:43;;;;;;;2.45;0.88;;;20.40;99.90;;;;;;5095417;27;20035;-77
2023/08/31 12:37:09;;;;;;;3.17;0.98;;;20.30;99.90;;;;;;5083182;27;20065;-77
2023/08/31 12:39:35;;;;;;;1.90;1.00;;;20.30;99.90;;;;;;5119975;27;20038;-78
2023/08/31 12:42:00;;;;;;;3.17;1.10;;;20.40;99.90;;;;;;5129682;27;20125;-77
2023/08/31 12:44:26;;;;;;;2.53;1.10;;;20.30;99.90;;;;;;5134387;27;20050;-79
2023/08/31 12:46:52;;;;;;;2.67;1.05;;;20.40;99.90;;;;;;5101120;27;20046;-78
2023/08/31 12:49:20;;;;;;;2.75;1.10;;;20.30;99.90;;;;;;5100086;27;20127;-78
2023/08/31 12:51:46;;;;;;;3.35;1.00;;;20.60;99.90;;;;;;5104438;27;20102;-77
2023/08/31 12:54:12;;;;;;;1.40;1.00;;;20.50;99.90;;;;;;5111686;27;20053;-76
2023/08/31 12:56:37;;;;;;;2.88;1.10;;;20.50;99.90;;;;;;5113381;27;20038;-79
2023/08/31 12:59:05;;;;;;;3.05;1.20;;;20.40;99.90;;;;;;5115526;27;20051;-77
2023/08/31 13:01:33;;;;;;;3.33;1.05;;;20.70;99.90;;;;;;5112199;27;20435;-78
2023/08/31 13:03:58;;;;;;;3.10;1.20;;;20.70;99.90;;;;;;5098278;27;20487;-79
2023/08/31 13:06:25;;;;;;;2.00;1.13;;;20.90;99.90;;;;;;5099945;27;20041;-75
2023/08/31 13:08:51;;;;;;;5.72;1.30;;;21.10;99.90;;;;;;5094733;27;20115;-75
2023/08/31 13:11:18;;;;;;;3.85;1.40;;;21.10;99.90;;;;;;5096036;27;20359;-79
2023/08/31 13:13:44;;;;;;;3.47;1.30;;;21.10;99.90;;;;;;5066397;27;20039;-76
2023/08/31 13:16:10;;;;;;;3.30;1.20;;;21.30;99.90;;;;;;5105988;27;20035;-76
2023/08/31 13:18:36;;;;;;;5.03;1.50;;;21.30;99.90;;;;;;5072143;27;20024;-78
2023/08/31 13:21:02;;;;;;;3.08;1.63;;;21.30;99.90;;;;;;5119035;27;20043;-77
2023/08/31 13:23:28;;;;;;;4.25;1.20;;;21.90;99.90;;;;;;5112292;27;20054;-77
2023/08/31 13:25:56;;;;;;;1.98;1.30;;;22.00;99.90;;;;;;5118024;27;20039;-76
2023/08/31 13:28:21;;;;;;;1.90;1.13;;;22.60;99.90;;;;;;5073878;27;20039;-81
2023/08/31 13:30:47;;;;;;;3.50;1.30;;;23.10;99.90;;;;;;5107821;27;20038;-80
2023/08/31 13:33:13;;;;;;;2.53;1.58;;;23.40;99.90;;;;;;5095507;27;20039;-78
2023/08/31 13:35:39;;;;;;;4.40;1.20;;;23.60;99.90;;;;;;5112222;27;20039;-79
2023/08/31 13:38:04;;;;;;;3.83;1.10;;;23.00;99.90;;;;;;5097062;27;20109;-77
2023/08/31 13:40:30;;;;;;;4.70;1.17;;;22.70;99.90;;;;;;5122103;27;20037;-80